createdAt,value
2023-01-20T00:00:00.162Z,19.95
2023-01-20T00:02:26.739Z,20.88
2023-01-20T00:04:53.288Z,20.20
2023-01-20T00:07:19.721Z,22.65
2023-01-20T00:09:46.168Z,20.85
2023-01-20T00:12:12.593Z,19.75
2023-01-20T00:14:39.097Z,18.88
2023-01-20T00:17:05.550Z,16.90
2023-01-20T00:19:31.990Z,19.05
2023-01-20T00:21:58.413Z,18.83
2023-01-20T00:24:24.906Z,18.70
2023-01-20T00:26:51.365Z,17.00
2023-01-20T00:29:17.817Z,15.98
2023-01-20T00:31:44.316Z,15.93
2023-01-20T00:34:11.527Z,16.80
2023-01-20T00:36:38.203Z,16.38
2023-01-20T00:39:04.629Z,16.02
2023-01-20T00:41:31.116Z,16.70
2023-01-20T00:43:57.658Z,17.02
2023-01-20T00:46:24.219Z,17.65
2023-01-20T00:48:50.786Z,17.17
2023-01-20T00:51:17.576Z,16.70
2023-01-20T00:53:44.107Z,18.27
2023-01-20T00:56:10.557Z,15.93
2023-01-20T00:58:37.010Z,16.08
2023-01-20T01:01:03.700Z,18.48
2023-01-20T01:03:30.289Z,18.55
2023-01-20T01:06:13.359Z,17.92
2023-01-20T01:08:39.853Z,18.90
2023-01-20T01:11:06.475Z,18.52
2023-01-20T01:13:33.111Z,19.38
2023-01-20T01:15:59.704Z,17.92
2023-01-20T01:18:26.236Z,18.05
2023-01-20T01:20:52.753Z,19.13
2023-01-20T01:23:19.189Z,16.90
2023-01-20T01:25:45.687Z,17.02
2023-01-20T01:28:12.167Z,18.38
2023-01-20T01:30:38.667Z,16.10
2023-01-20T01:33:05.135Z,17.30
2023-01-20T01:35:31.729Z,16.08
2023-01-20T01:37:58.165Z,15.95
2023-01-20T01:40:24.674Z,18.08
2023-01-20T01:42:51.361Z,17.10
2023-01-20T01:45:20.497Z,16.55
2023-01-20T01:47:49.309Z,16.00
2023-01-20T01:50:33.154Z,16.45
2023-01-20T01:53:00.349Z,15.55
2023-01-20T01:55:31.091Z,15.90
2023-01-20T01:57:58.553Z,15.90
2023-01-20T02:00:25.036Z,16.63
2023-01-20T02:02:51.797Z,18.05
2023-01-20T02:05:20.094Z,18.90
2023-01-20T02:07:47.676Z,19.23
2023-01-20T02:10:14.648Z,19.08
2023-01-20T02:12:41.449Z,16.77
2023-01-20T02:15:08.316Z,18.98
2023-01-20T02:17:43.799Z,18.52
2023-01-20T02:20:28.833Z,17.48
2023-01-20T02:22:55.239Z,17.83
2023-01-20T02:25:40.635Z,18.05
2023-01-20T02:28:23.689Z,17.00
2023-01-20T02:30:53.285Z,15.95
2023-01-20T02:33:25.730Z,16.70
2023-01-20T02:35:57.007Z,16.05
2023-01-20T02:38:29.313Z,15.95
2023-01-20T02:40:59.864Z,17.42
2023-01-20T02:43:32.485Z,17.48
2023-01-20T02:45:59.028Z,16.05
2023-01-20T02:48:48.168Z,15.30
2023-01-20T02:51:17.142Z,14.48
2023-01-20T02:53:54.507Z,14.75
2023-01-20T02:56:23.073Z,14.32
2023-01-20T02:58:50.916Z,13.93
2023-01-20T03:01:20.841Z,13.23
2023-01-20T03:03:49.586Z,13.48
2023-01-20T03:06:21.232Z,14.18
2023-01-20T03:08:48.768Z,13.05
2023-01-20T03:11:15.538Z,13.77
2023-01-20T03:13:44.770Z,15.32
2023-01-20T03:16:14.415Z,15.18
2023-01-20T03:18:40.989Z,14.75
2023-01-20T03:21:08.140Z,15.07
2023-01-20T03:23:35.637Z,13.85
2023-01-20T03:26:08.172Z,15.40
2023-01-20T03:28:34.926Z,14.25
2023-01-20T03:31:09.336Z,14.55
2023-01-20T03:33:35.844Z,13.95
2023-01-20T03:36:02.412Z,14.07
2023-01-20T03:38:29.029Z,12.95
2023-01-20T03:41:07.461Z,13.38
2023-01-20T03:43:54.191Z,13.02
2023-01-20T03:46:28.387Z,15.00
2023-01-20T03:49:20.801Z,14.20
2023-01-20T03:52:02.048Z,21.30
2023-01-20T03:54:32.749Z,14.18
2023-01-20T03:57:04.751Z,15.27
2023-01-20T03:59:34.187Z,16.08
2023-01-20T04:02:05.253Z,15.35
2023-01-20T04:04:33.037Z,11.75
2023-01-20T04:07:00.055Z,14.93
2023-01-20T04:09:29.174Z,15.10
2023-01-20T04:11:55.717Z,13.40
2023-01-20T04:14:22.270Z,13.23
2023-01-20T04:16:58.265Z,12.48
2023-01-20T04:19:25.600Z,13.00
2023-01-20T04:22:12.454Z,11.23
2023-01-20T04:24:54.116Z,11.25
2023-01-20T04:27:20.528Z,12.07
2023-01-20T04:29:46.963Z,11.70
2023-01-20T04:32:13.591Z,10.40
2023-01-20T04:34:40.057Z,11.43
2023-01-20T04:37:06.496Z,11.70
2023-01-20T04:39:32.974Z,11.80
2023-01-20T04:41:59.448Z,11.95
2023-01-20T04:44:26.043Z,12.02
2023-01-20T04:46:56.348Z,12.35
2023-01-20T04:49:22.765Z,11.68
2023-01-20T04:51:49.163Z,11.15
2023-01-20T04:54:15.599Z,11.80
2023-01-20T04:56:43.382Z,12.93
2023-01-20T04:59:09.904Z,11.73
2023-01-20T05:01:36.621Z,12.75
2023-01-20T05:04:03.196Z,12.30
2023-01-20T05:06:29.744Z,13.50
2023-01-20T05:08:56.293Z,13.10
2023-01-20T05:11:22.870Z,13.07
2023-01-20T05:13:51.149Z,14.18
2023-01-20T05:16:23.950Z,14.30
2023-01-20T05:18:50.566Z,15.02
2023-01-20T05:21:17.007Z,15.45
2023-01-20T05:23:43.433Z,15.82
2023-01-20T05:26:11.441Z,16.10
2023-01-20T05:28:37.974Z,15.80
2023-01-20T05:31:04.568Z,14.93
2023-01-20T05:33:31.119Z,14.98
2023-01-20T05:35:57.576Z,16.13
2023-01-20T05:38:24.011Z,14.98
2023-01-20T05:40:50.713Z,13.63
2023-01-20T05:43:17.234Z,15.43
2023-01-20T05:45:43.818Z,14.18
2023-01-20T05:48:10.291Z,14.70
2023-01-20T05:50:36.718Z,15.35
2023-01-20T05:53:03.192Z,15.18
2023-01-20T05:55:29.679Z,16.55
2023-01-20T05:57:56.451Z,14.95
2023-01-20T06:00:23.091Z,13.40
2023-01-20T06:03:03.467Z,14.50
2023-01-20T06:05:30.009Z,13.25
2023-01-20T06:07:56.626Z,12.63
2023-01-20T06:10:28.182Z,12.73
2023-01-20T06:12:55.544Z,13.10
2023-01-20T06:15:23.879Z,12.77
2023-01-20T06:17:50.658Z,14.13
2023-01-20T06:20:17.658Z,14.27
2023-01-20T06:22:44.130Z,15.35
2023-01-20T06:25:10.821Z,16.75
2023-01-20T06:27:37.546Z,15.18
2023-01-20T06:30:05.294Z,16.00
2023-01-20T06:32:31.750Z,15.45
2023-01-20T06:34:58.279Z,16.48
2023-01-20T06:37:24.743Z,16.02
2023-01-20T06:39:51.220Z,19.05
2023-01-20T06:42:17.696Z,14.73
2023-01-20T06:44:44.167Z,15.38
2023-01-20T06:47:10.651Z,15.52
2023-01-20T06:49:37.086Z,16.88
2023-01-20T06:52:03.579Z,16.88
2023-01-20T06:54:30.068Z,19.92
2023-01-20T06:56:56.554Z,18.55
2023-01-20T06:59:22.997Z,20.50
2023-01-20T07:01:49.616Z,20.27
2023-01-20T07:04:16.203Z,20.33
2023-01-20T07:06:42.973Z,21.58
2023-01-20T07:09:10.631Z,18.60
2023-01-20T07:11:37.474Z,19.67
2023-01-20T07:14:04.426Z,19.10
2023-01-20T07:16:31.088Z,20.90
2023-01-20T07:18:57.539Z,20.02
2023-01-20T07:21:26.253Z,21.30
2023-01-20T07:23:53.068Z,22.10
2023-01-20T07:26:20.362Z,22.90
2023-01-20T07:28:47.290Z,20.83
2023-01-20T07:31:14.712Z,20.73
2023-01-20T07:33:41.261Z,21.23
2023-01-20T07:36:08.467Z,22.10
2023-01-20T07:38:35.074Z,20.65
2023-01-20T07:41:04.869Z,22.65
2023-01-20T07:43:31.625Z,23.63
2023-01-20T07:45:58.599Z,25.05
2023-01-20T07:48:25.805Z,22.95
2023-01-20T07:51:02.032Z,21.17
2023-01-20T07:53:48.837Z,22.17
2023-01-20T07:56:19.836Z,21.08
2023-01-20T07:58:47.565Z,19.77
2023-01-20T08:01:15.620Z,21.98
2023-01-20T08:03:42.741Z,21.45
2023-01-20T08:06:10.763Z,23.17
2023-01-20T08:08:37.287Z,21.70
2023-01-20T08:11:04.774Z,21.58
2023-01-20T08:13:31.950Z,20.77
2023-01-20T08:16:02.837Z,18.27
2023-01-20T08:18:29.524Z,18.77
2023-01-20T08:20:55.958Z,15.02
2023-01-20T08:23:22.500Z,16.40
2023-01-20T08:25:48.976Z,14.90
2023-01-20T08:28:15.436Z,13.68
2023-01-20T08:30:41.985Z,12.63
2023-01-20T08:33:08.514Z,10.85
2023-01-20T08:35:36.435Z,9.63
2023-01-20T08:38:03.574Z,9.00
2023-01-20T08:40:30.184Z,10.50
2023-01-20T08:42:56.692Z,9.98
2023-01-20T08:45:23.954Z,12.70
2023-01-20T08:47:50.420Z,14.60
2023-01-20T08:50:17.141Z,14.90
2023-01-20T08:52:43.625Z,15.98
2023-01-20T08:55:10.172Z,13.23
2023-01-20T08:57:36.888Z,13.65
2023-01-20T09:00:05.552Z,12.95
2023-01-20T09:02:32.025Z,13.73
2023-01-20T09:04:58.814Z,12.75
2023-01-20T09:07:25.271Z,14.43
2023-01-20T09:09:51.796Z,11.60
2023-01-20T09:12:18.295Z,13.65
2023-01-20T09:14:44.815Z,14.43
2023-01-20T09:17:11.343Z,14.10
2023-01-20T09:19:37.804Z,14.50
2023-01-20T09:22:04.421Z,13.50
2023-01-20T09:24:30.892Z,15.38
2023-01-20T09:26:58.022Z,13.38
2023-01-20T09:29:24.684Z,16.52
2023-01-20T09:31:53.079Z,19.60
2023-01-20T09:34:24.760Z,19.13
2023-01-20T09:36:52.785Z,16.95
2023-01-20T09:39:38.569Z,17.30
2023-01-20T09:42:41.963Z,21.35
2023-01-20T09:45:25.179Z,23.27
2023-01-20T09:47:54.193Z,19.92
2023-01-20T09:50:58.056Z,22.88
2023-01-20T09:53:39.443Z,22.05
2023-01-20T09:56:11.428Z,19.77
2023-01-20T09:58:37.882Z,23.60
2023-01-20T10:01:09.077Z,23.90
2023-01-20T10:03:39.861Z,25.85
2023-01-20T10:06:08.715Z,26.95
2023-01-20T10:08:59.650Z,31.63
2023-01-20T10:11:33.420Z,29.75
2023-01-20T10:14:04.873Z,29.15
2023-01-20T10:16:45.473Z,28.65
2023-01-20T10:19:21.412Z,28.33
2023-01-20T10:21:54.431Z,29.45
2023-01-20T10:24:24.385Z,27.25
2023-01-20T10:26:51.020Z,26.00
2023-01-20T10:29:27.407Z,24.65
2023-01-20T10:31:58.820Z,24.05
2023-01-20T10:34:27.621Z,32.17
2023-01-20T10:36:59.334Z,25.75
2023-01-20T10:42:02.296Z,24.05
2023-01-20T10:44:28.944Z,23.98
2023-01-20T10:46:55.497Z,27.80
2023-01-20T10:49:22.623Z,28.02
2023-01-20T10:51:54.471Z,27.80
2023-01-20T10:56:54.035Z,27.23
2023-01-20T10:59:27.794Z,28.80
2023-01-20T11:02:06.252Z,28.02
2023-01-20T11:04:37.387Z,28.10
2023-01-20T11:07:08.359Z,31.13
2023-01-20T11:09:37.701Z,22.43
2023-01-20T11:12:06.793Z,25.08
2023-01-20T11:14:34.002Z,32.65
2023-01-20T11:17:04.510Z,32.05
2023-01-20T11:19:47.793Z,31.27
2023-01-20T11:22:20.696Z,33.75
2023-01-20T11:24:47.454Z,32.85
2023-01-20T11:27:16.302Z,32.67
2023-01-20T11:29:44.931Z,31.20
2023-01-20T11:32:25.401Z,32.53
2023-01-20T11:34:52.167Z,34.25
2023-01-20T11:37:25.652Z,32.08
2023-01-20T11:40:04.616Z,30.10
2023-01-20T11:42:42.277Z,30.77
2023-01-20T11:45:22.577Z,33.70
2023-01-20T11:48:18.368Z,34.08
2023-01-20T11:50:50.186Z,34.22
2023-01-20T11:55:45.547Z,33.63
2023-01-20T11:58:16.683Z,34.08
2023-01-20T12:00:43.899Z,35.95
2023-01-20T12:03:10.385Z,35.38
2023-01-20T12:05:37.012Z,32.58
2023-01-20T12:08:05.027Z,35.05
2023-01-20T12:10:35.664Z,32.95
2023-01-20T12:13:04.871Z,32.42
2023-01-20T12:15:35.927Z,34.55
2023-01-20T12:18:02.373Z,24.98
2023-01-20T12:20:54.065Z,32.58
2023-01-20T12:23:45.621Z,33.63
2023-01-20T12:26:13.887Z,35.00
2023-01-20T12:29:03.692Z,31.95
2023-01-20T12:31:31.026Z,35.55
2023-01-20T12:34:04.907Z,34.60
2023-01-20T12:36:39.214Z,34.00
2023-01-20T12:39:17.641Z,36.72
2023-01-20T12:41:52.444Z,36.70
2023-01-20T12:44:32.381Z,36.08
2023-01-20T12:47:06.843Z,38.20
2023-01-20T12:49:41.936Z,35.03
2023-01-20T12:52:08.433Z,34.80
2023-01-20T12:54:53.754Z,34.30
2023-01-20T12:57:20.176Z,35.05
2023-01-20T13:00:05.084Z,34.30
2023-01-20T13:02:44.510Z,33.70
2023-01-20T13:05:20.087Z,32.80
2023-01-20T13:07:56.097Z,36.28
2023-01-20T13:10:25.604Z,32.53
2023-01-20T13:13:03.241Z,32.80
2023-01-20T13:15:34.669Z,32.45
2023-01-20T13:18:01.120Z,33.22
2023-01-20T13:20:28.648Z,32.35
2023-01-20T13:22:55.997Z,35.15
2023-01-20T13:25:23.472Z,27.92
2023-01-20T13:27:51.370Z,30.08
2023-01-20T13:30:36.500Z,29.20
2023-01-20T13:33:08.798Z,30.70
2023-01-20T13:35:42.760Z,29.20
2023-01-20T13:38:17.848Z,29.25
2023-01-20T13:40:51.713Z,28.00
2023-01-20T13:43:24.091Z,29.25
2023-01-20T13:46:10.887Z,28.25
2023-01-20T13:48:38.362Z,29.42
2023-01-20T13:51:19.506Z,28.23
2023-01-20T13:53:46.153Z,21.67
2023-01-20T13:56:34.838Z,29.48
2023-01-20T13:59:01.252Z,31.63
2023-01-20T14:01:28.118Z,29.17
2023-01-20T14:04:01.764Z,28.90
2023-01-20T14:06:28.511Z,27.52
2023-01-20T14:08:55.319Z,28.15
2023-01-20T14:11:23.357Z,27.77
2023-01-20T14:13:55.968Z,29.40
2023-01-20T14:16:37.697Z,28.50
2023-01-20T14:19:25.449Z,26.35
2023-01-20T14:21:53.233Z,28.58
2023-01-20T14:24:42.264Z,27.25
2023-01-20T14:27:14.156Z,25.88
2023-01-20T14:29:40.614Z,27.88
2023-01-20T14:32:16.029Z,26.92
2023-01-20T14:34:43.083Z,27.35
2023-01-20T14:37:24.852Z,25.52
2023-01-20T14:39:51.936Z,26.63
2023-01-20T14:42:20.042Z,27.75
2023-01-20T14:44:50.456Z,27.15
2023-01-20T14:47:17.076Z,26.42
2023-01-20T14:49:44.735Z,26.63
2023-01-20T14:52:14.173Z,27.00
2023-01-20T14:54:45.180Z,26.42
2023-01-20T14:57:17.884Z,26.65
2023-01-20T14:59:44.402Z,28.77
2023-01-20T15:02:43.281Z,27.63
2023-01-20T15:05:19.169Z,27.58
2023-01-20T15:07:45.598Z,25.52
2023-01-20T15:10:14.768Z,25.17
2023-01-20T15:12:47.268Z,26.42
2023-01-20T15:15:22.438Z,26.42
2023-01-20T15:18:07.580Z,25.00
2023-01-20T15:20:41.542Z,26.63
2023-01-20T15:23:16.159Z,27.17
2023-01-20T15:25:42.708Z,28.55
2023-01-20T15:28:25.052Z,26.27
2023-01-20T15:30:52.647Z,27.23
2023-01-20T15:33:21.690Z,26.30
2023-01-20T15:35:55.828Z,26.70
2023-01-20T15:38:22.448Z,26.73
2023-01-20T15:40:49.185Z,29.17
2023-01-20T15:43:18.955Z,27.65
2023-01-20T15:45:45.689Z,29.00
2023-01-20T15:48:17.117Z,29.85
2023-01-20T15:50:43.739Z,28.65
2023-01-20T15:53:12.595Z,28.02
2023-01-20T15:55:49.635Z,27.75
2023-01-20T15:58:21.911Z,26.60
2023-01-20T16:00:48.434Z,27.40
2023-01-20T16:03:14.913Z,27.88
2023-01-20T16:05:41.332Z,28.25
2023-01-20T16:08:34.062Z,29.55
2023-01-20T16:11:00.635Z,32.08
2023-01-20T16:13:27.398Z,30.10
2023-01-20T16:15:53.949Z,28.23
2023-01-20T16:18:21.081Z,29.10
2023-01-20T16:20:49.787Z,30.50
2023-01-20T16:23:16.416Z,32.30
2023-01-20T16:25:42.885Z,30.25
2023-01-20T16:28:18.487Z,32.13
2023-01-20T16:30:45.146Z,32.67
2023-01-20T16:33:15.385Z,32.13
2023-01-20T16:35:42.201Z,35.13
2023-01-20T16:38:15.786Z,32.85
2023-01-20T16:40:46.993Z,31.40
2023-01-20T16:43:13.528Z,32.78
2023-01-20T16:45:40.000Z,31.95
2023-01-20T16:48:09.171Z,32.78
2023-01-20T16:50:38.547Z,34.17
2023-01-20T16:53:05.031Z,32.22
2023-01-20T16:55:31.539Z,33.60
2023-01-20T16:57:58.072Z,37.63
2023-01-20T17:00:24.634Z,34.80
2023-01-20T17:06:24.604Z,32.40
2023-01-20T17:08:52.342Z,34.13
2023-01-20T17:11:22.867Z,34.78
2023-01-20T17:13:49.401Z,36.10
2023-01-20T17:16:16.412Z,33.67
2023-01-20T17:18:45.690Z,33.72
2023-01-20T17:21:13.024Z,31.60
2023-01-20T17:23:39.856Z,32.17
2023-01-20T17:26:07.051Z,34.13
2023-01-20T17:28:33.824Z,35.15
2023-01-20T17:31:01.147Z,33.78
2023-01-20T17:33:27.714Z,30.63
2023-01-20T17:36:04.332Z,31.20
2023-01-20T17:38:31.735Z,31.00
2023-01-20T17:41:05.138Z,32.67
2023-01-20T17:43:35.367Z,31.67
2023-01-20T17:46:02.061Z,31.92
2023-01-20T17:48:28.573Z,30.58
2023-01-20T17:50:59.434Z,30.33
2023-01-20T17:53:26.835Z,31.47
2023-01-20T17:56:03.085Z,33.10
2023-01-20T17:58:37.712Z,31.95
2023-01-20T18:01:10.657Z,30.08
2023-01-20T18:03:39.303Z,30.55
2023-01-20T18:06:10.467Z,29.00
2023-01-20T18:08:38.218Z,31.67
2023-01-20T18:11:09.365Z,31.60
2023-01-20T18:13:36.216Z,25.42
2023-01-20T18:16:04.236Z,31.98
2023-01-20T18:22:06.935Z,31.27
2023-01-20T18:24:34.040Z,31.42
2023-01-20T18:27:00.525Z,32.15
2023-01-20T18:29:28.961Z,31.67
2023-01-20T18:31:57.115Z,32.17
2023-01-20T18:34:24.037Z,30.70
2023-01-20T18:36:50.495Z,32.90
2023-01-20T18:39:18.383Z,32.08
2023-01-20T18:41:45.235Z,27.00
2023-01-20T18:44:11.849Z,32.40
2023-01-20T18:46:38.662Z,32.95
2023-01-20T18:49:07.454Z,33.70
2023-01-20T18:51:35.867Z,35.08
2023-01-20T18:54:07.460Z,35.70
2023-01-20T18:56:34.376Z,33.42
2023-01-20T18:59:01.164Z,34.10
2023-01-20T19:01:33.752Z,32.85
2023-01-20T19:04:01.145Z,32.17
2023-01-20T19:06:28.783Z,34.25
2023-01-20T19:08:56.296Z,32.20
2023-01-20T19:11:24.546Z,33.78
2023-01-20T19:13:53.348Z,33.47
2023-01-20T19:16:21.174Z,30.27
2023-01-20T19:18:54.907Z,30.08
2023-01-20T19:21:21.851Z,31.50
2023-01-20T19:23:49.987Z,31.33
2023-01-20T19:26:18.734Z,30.15
2023-01-20T19:28:45.969Z,31.17
2023-01-20T19:31:16.778Z,29.83
2023-01-20T19:33:43.629Z,30.47
2023-01-20T19:36:11.231Z,30.52
2023-01-20T19:38:38.135Z,29.77
2023-01-20T19:41:25.934Z,31.90
2023-01-20T19:43:55.389Z,29.73
2023-01-20T19:46:24.407Z,28.05
2023-01-20T19:48:51.574Z,30.83
2023-01-20T19:51:19.872Z,29.60
2023-01-20T19:53:47.078Z,29.55
2023-01-20T19:56:15.416Z,28.95
2023-01-20T19:58:42.301Z,29.20
2023-01-20T20:01:09.532Z,29.40
2023-01-20T20:03:36.480Z,30.55
2023-01-20T20:06:03.907Z,31.33
2023-01-20T20:08:30.382Z,31.35
2023-01-20T20:10:56.889Z,30.23
2023-01-20T20:13:23.555Z,29.48
2023-01-20T20:15:50.405Z,28.88
2023-01-20T20:18:16.940Z,28.33
2023-01-20T20:20:44.601Z,30.60
2023-01-20T20:23:11.222Z,30.23
2023-01-20T20:25:38.249Z,29.65
2023-01-20T20:28:04.818Z,29.58
2023-01-20T20:30:31.293Z,28.80
2023-01-20T20:32:58.635Z,29.10
2023-01-20T20:35:25.155Z,28.95
2023-01-20T20:37:51.728Z,27.48
2023-01-20T20:40:18.740Z,28.88
2023-01-20T20:42:45.279Z,28.55
2023-01-20T20:45:12.107Z,29.75
2023-01-20T20:47:38.601Z,29.27
2023-01-20T20:50:05.302Z,28.75
2023-01-20T20:52:31.811Z,29.42
2023-01-20T20:54:58.252Z,30.77
2023-01-20T20:57:24.732Z,28.90
2023-01-20T20:59:58.863Z,30.77
2023-01-20T21:02:26.589Z,28.88
2023-01-20T21:04:53.250Z,30.13
2023-01-20T21:07:19.783Z,30.40
2023-01-20T21:12:31.511Z,31.17
2023-01-20T21:14:57.996Z,28.48
2023-01-20T21:17:24.571Z,30.20
2023-01-20T21:19:52.472Z,29.90
2023-01-20T21:22:19.944Z,29.05
2023-01-20T21:24:46.468Z,29.35
2023-01-20T21:27:13.414Z,29.58
2023-01-20T21:29:39.878Z,30.05
2023-01-20T21:32:06.443Z,30.52
2023-01-20T21:34:32.932Z,31.15
2023-01-20T21:36:59.699Z,29.25
2023-01-20T21:39:26.169Z,29.58
2023-01-20T21:41:52.694Z,30.35
2023-01-20T21:44:28.340Z,29.13
2023-01-20T21:46:55.831Z,27.60
2023-01-20T21:49:41.406Z,27.85
2023-01-20T21:52:34.192Z,27.63
2023-01-20T21:55:00.942Z,26.38
2023-01-20T21:57:29.096Z,26.73
2023-01-20T21:59:55.978Z,28.38
2023-01-20T22:02:22.586Z,26.85
2023-01-20T22:04:49.009Z,28.58
2023-01-20T22:07:16.024Z,26.40
2023-01-20T22:09:42.493Z,28.67
2023-01-20T22:12:09.371Z,27.65
2023-01-20T22:14:36.112Z,28.38
2023-01-20T22:17:02.724Z,27.55
2023-01-20T22:19:29.198Z,28.00
2023-01-20T22:21:56.885Z,28.95
2023-01-20T22:24:23.421Z,30.98
2023-01-20T22:26:49.903Z,28.13
2023-01-20T22:29:17.001Z,27.80
2023-01-20T22:31:43.673Z,28.90
2023-01-20T22:34:10.637Z,27.73
2023-01-20T22:36:37.171Z,28.27
2023-01-20T22:39:04.721Z,28.95
2023-01-20T22:41:31.238Z,27.40
2023-01-20T22:43:57.697Z,28.58
2023-01-20T22:46:25.114Z,26.95
2023-01-20T22:48:51.694Z,27.55
2023-01-20T22:51:19.759Z,27.30
2023-01-20T22:53:46.655Z,25.48
2023-01-20T22:56:14.928Z,27.63
2023-01-20T22:58:41.934Z,29.30
2023-01-20T23:01:19.152Z,28.52
2023-01-20T23:03:46.247Z,26.60
2023-01-20T23:06:14.042Z,26.85
2023-01-20T23:08:41.181Z,27.52
2023-01-20T23:11:11.785Z,28.27
2023-01-20T23:13:41.192Z,27.48
2023-01-20T23:16:10.184Z,28.08
2023-01-20T23:18:36.745Z,27.52
2023-01-20T23:21:05.851Z,29.15
2023-01-20T23:23:32.485Z,27.10
2023-01-20T23:26:07.424Z,29.30
2023-01-20T23:28:34.105Z,28.60
2023-01-20T23:31:05.093Z,29.38
2023-01-20T23:33:32.183Z,23.08
2023-01-20T23:36:13.747Z,30.77
2023-01-20T23:38:40.324Z,26.85
2023-01-20T23:41:06.891Z,27.92
2023-01-20T23:43:33.348Z,30.17
2023-01-20T23:46:00.824Z,30.25
2023-01-20T23:48:28.046Z,30.02
2023-01-20T23:50:56.555Z,29.35
2023-01-20T23:53:23.208Z,29.00
2023-01-20T23:55:49.689Z,28.73
2023-01-20T23:58:16.249Z,26.08
